createdAt,value
2022-08-21T00:00:44.078Z,24.50
2022-08-21T00:03:14.673Z,24.60
2022-08-21T00:05:51.610Z,24.60
2022-08-21T00:08:22.764Z,24.80
2022-08-21T00:10:51.797Z,24.80
2022-08-21T00:13:21.775Z,24.90
2022-08-21T00:15:51.233Z,24.70
2022-08-21T00:18:21.264Z,24.60
2022-08-21T00:20:49.915Z,24.80
2022-08-21T00:23:18.449Z,24.80
2022-08-21T00:25:47.292Z,24.80
2022-08-21T00:28:16.289Z,25.00
2022-08-21T00:30:45.534Z,25.00
2022-08-21T00:33:14.710Z,25.00
2022-08-21T00:35:45.055Z,25.00
2022-08-21T00:38:13.917Z,25.00
2022-08-21T00:40:55.536Z,24.70
2022-08-21T00:43:29.628Z,24.70
2022-08-21T00:45:59.049Z,24.60
2022-08-21T00:48:28.239Z,24.70
2022-08-21T00:51:27.225Z,24.80
2022-08-21T00:53:59.171Z,25.00
2022-08-21T00:56:28.070Z,25.10
2022-08-21T00:58:58.336Z,25.10
2022-08-21T01:01:27.069Z,25.10
2022-08-21T01:03:56.035Z,25.10
2022-08-21T01:06:24.427Z,25.00
2022-08-21T01:08:53.546Z,25.10
2022-08-21T01:11:23.186Z,25.00
2022-08-21T01:13:53.611Z,24.90
2022-08-21T01:16:24.172Z,25.00
2022-08-21T01:18:53.258Z,25.00
2022-08-21T01:21:28.048Z,25.20
2022-08-21T01:23:58.782Z,25.10
2022-08-21T01:26:34.495Z,24.90
2022-08-21T01:29:29.616Z,24.80
2022-08-21T01:31:58.268Z,24.80
2022-08-21T01:34:27.040Z,24.70
2022-08-21T01:36:55.509Z,24.80
2022-08-21T01:39:24.411Z,24.80
2022-08-21T01:41:52.811Z,24.70
2022-08-21T01:44:24.144Z,24.60
2022-08-21T01:46:53.288Z,24.60
2022-08-21T01:49:22.608Z,24.50
2022-08-21T01:51:51.172Z,24.30
2022-08-21T01:54:19.623Z,24.20
2022-08-21T01:56:51.732Z,24.30
2022-08-21T01:59:20.688Z,24.20
2022-08-21T02:01:49.071Z,24.20
2022-08-21T02:04:17.612Z,24.20
2022-08-21T02:06:46.220Z,24.10
2022-08-21T02:09:15.821Z,24.10
2022-08-21T02:11:45.247Z,24.00
2022-08-21T02:14:16.101Z,23.90
2022-08-21T02:17:05.193Z,23.90
2022-08-21T02:19:37.853Z,23.80
2022-08-21T02:22:10.931Z,23.80
2022-08-21T02:24:53.684Z,23.80
2022-08-21T02:27:26.314Z,23.70
2022-08-21T02:29:57.510Z,23.80
2022-08-21T02:32:26.841Z,23.70
2022-08-21T02:34:55.699Z,23.80
2022-08-21T02:37:25.142Z,23.80
2022-08-21T02:39:53.975Z,23.80
2022-08-21T02:42:22.496Z,23.60
2022-08-21T02:44:51.059Z,23.70
2022-08-21T02:47:19.448Z,23.70
2022-08-21T02:49:47.840Z,23.50
2022-08-21T02:52:16.538Z,23.40
2022-08-21T02:54:44.907Z,23.20
2022-08-21T02:57:13.351Z,23.20
2022-08-21T02:59:42.621Z,23.10
2022-08-21T03:02:11.027Z,23.10
2022-08-21T03:04:42.269Z,22.80
2022-08-21T03:07:13.033Z,22.80
2022-08-21T03:09:50.723Z,22.60
2022-08-21T03:12:28.518Z,22.50
2022-08-21T03:14:59.515Z,22.40
2022-08-21T03:17:29.414Z,22.20
2022-08-21T03:19:59.008Z,22.30
2022-08-21T03:22:30.817Z,22.10
2022-08-21T03:25:01.170Z,22.00
2022-08-21T03:27:33.254Z,22.10
2022-08-21T03:30:05.422Z,22.00
2022-08-21T03:32:34.276Z,21.90
2022-08-21T03:35:03.424Z,21.90
2022-08-21T03:37:32.315Z,21.90
2022-08-21T03:40:00.729Z,21.70
2022-08-21T03:42:29.236Z,21.80
2022-08-21T03:44:57.724Z,21.80
2022-08-21T03:47:26.166Z,21.80
2022-08-21T03:49:54.625Z,21.70
2022-08-21T03:52:23.365Z,21.70
2022-08-21T03:54:52.280Z,21.70
2022-08-21T03:57:20.775Z,21.70
2022-08-21T03:59:49.229Z,21.70
2022-08-21T04:02:20.597Z,21.70
2022-08-21T04:04:48.972Z,21.70
2022-08-21T04:07:17.626Z,21.70
2022-08-21T04:09:46.347Z,21.60
2022-08-21T04:12:15.308Z,21.60
2022-08-21T04:14:43.740Z,21.50
2022-08-21T04:17:12.098Z,21.40
2022-08-21T04:19:40.511Z,21.40
2022-08-21T04:22:08.954Z,21.30
2022-08-21T04:24:37.424Z,21.20
2022-08-21T04:27:05.870Z,21.20
2022-08-21T04:29:37.165Z,21.10
2022-08-21T04:32:08.476Z,21.10
2022-08-21T04:34:36.935Z,21.10
2022-08-21T04:37:05.758Z,21.00
2022-08-21T04:39:34.320Z,20.90
2022-08-21T04:42:03.162Z,20.90
2022-08-21T04:44:31.527Z,20.90
2022-08-21T04:46:59.951Z,20.80
2022-08-21T04:49:29.593Z,20.80
2022-08-21T04:51:58.013Z,20.70
2022-08-21T04:54:26.443Z,20.60
2022-08-21T04:57:05.357Z,20.60
2022-08-21T04:59:38.698Z,20.50
2022-08-21T05:02:08.945Z,20.50
2022-08-21T05:04:40.811Z,20.50
2022-08-21T05:07:17.161Z,20.50
2022-08-21T05:10:06.360Z,20.40
2022-08-21T05:12:35.275Z,20.40
2022-08-21T05:15:06.071Z,20.30
2022-08-21T05:17:34.583Z,20.20
2022-08-21T05:20:03.690Z,20.20
2022-08-21T05:22:32.060Z,20.10
2022-08-21T05:25:00.476Z,20.10
2022-08-21T05:27:31.572Z,20.00
2022-08-21T05:30:00.487Z,20.00
2022-08-21T05:32:30.012Z,20.00
2022-08-21T05:34:58.614Z,20.00
2022-08-21T05:37:27.175Z,20.00
2022-08-21T05:40:05.244Z,19.90
2022-08-21T05:42:44.097Z,19.90
2022-08-21T05:45:13.256Z,19.80
2022-08-21T05:47:41.743Z,19.80
2022-08-21T05:50:11.831Z,19.70
2022-08-21T05:52:40.236Z,19.70
2022-08-21T05:55:09.038Z,19.60
2022-08-21T05:57:37.504Z,19.60
2022-08-21T06:00:07.134Z,19.50
2022-08-21T06:02:35.485Z,19.40
2022-08-21T06:05:03.968Z,19.40
2022-08-21T06:07:32.383Z,19.30
2022-08-21T06:10:00.884Z,19.30
2022-08-21T06:12:29.416Z,19.30
2022-08-21T06:14:57.836Z,19.30
2022-08-21T06:17:26.254Z,19.30
2022-08-21T06:19:56.284Z,19.30
2022-08-21T06:22:24.840Z,19.20
2022-08-21T06:24:53.229Z,19.20
2022-08-21T06:27:26.567Z,19.20
2022-08-21T06:29:55.148Z,19.20
2022-08-21T06:32:23.584Z,19.20
2022-08-21T06:34:51.940Z,19.10
2022-08-21T06:37:20.395Z,19.10
2022-08-21T06:39:48.900Z,19.10
2022-08-21T06:42:19.217Z,19.00
2022-08-21T06:44:48.163Z,19.00
2022-08-21T06:47:17.096Z,19.10
2022-08-21T06:49:45.497Z,19.00
2022-08-21T06:52:15.524Z,19.00
2022-08-21T06:54:44.440Z,19.00
2022-08-21T06:57:12.802Z,19.00
2022-08-21T06:59:41.268Z,19.00
2022-08-21T07:02:09.699Z,18.90
2022-08-21T07:04:38.048Z,18.90
2022-08-21T07:07:06.959Z,18.80
2022-08-21T07:09:35.444Z,18.80
2022-08-21T07:12:06.074Z,18.70
2022-08-21T07:14:34.714Z,18.60
2022-08-21T07:17:04.502Z,18.60
2022-08-21T07:19:32.872Z,18.60
2022-08-21T07:22:04.027Z,18.50
2022-08-21T07:24:32.627Z,18.50
2022-08-21T07:27:00.992Z,18.40
2022-08-21T07:29:29.371Z,18.40
2022-08-21T07:31:57.838Z,18.40
2022-08-21T07:34:26.194Z,18.30
2022-08-21T07:36:54.816Z,18.30
2022-08-21T07:39:23.648Z,18.30
2022-08-21T07:41:52.166Z,18.30
2022-08-21T07:44:20.607Z,18.30
2022-08-21T07:46:49.010Z,18.20
2022-08-21T07:49:17.384Z,18.20
2022-08-21T07:51:45.735Z,18.20
2022-08-21T07:54:17.169Z,18.20
2022-08-21T07:56:45.851Z,18.10
2022-08-21T07:59:14.241Z,18.10
2022-08-21T08:01:43.225Z,18.10
2022-08-21T08:04:11.695Z,18.10
2022-08-21T08:06:40.063Z,18.10
2022-08-21T08:09:08.534Z,18.10
2022-08-21T08:11:39.029Z,18.00
2022-08-21T08:14:07.375Z,18.00
2022-08-21T08:16:35.795Z,18.00
2022-08-21T08:19:05.115Z,18.00
2022-08-21T08:21:35.381Z,18.00
2022-08-21T08:24:19.493Z,18.00
2022-08-21T08:26:50.573Z,18.00
2022-08-21T08:29:24.006Z,18.00
2022-08-21T08:31:52.816Z,17.80
2022-08-21T08:34:25.685Z,17.80
2022-08-21T08:36:55.052Z,17.80
2022-08-21T08:39:26.448Z,17.70
2022-08-21T08:42:02.180Z,17.60
2022-08-21T08:44:33.549Z,17.70
2022-08-21T08:47:03.256Z,17.60
2022-08-21T08:49:42.162Z,17.50
2022-08-21T08:52:30.020Z,17.60
2022-08-21T08:55:16.708Z,17.60
2022-08-21T08:57:50.212Z,17.50
2022-08-21T09:00:22.439Z,17.50
2022-08-21T09:02:56.149Z,17.40
2022-08-21T09:05:32.740Z,17.50
2022-08-21T09:08:20.389Z,17.50
2022-08-21T09:11:03.903Z,17.40
2022-08-21T09:13:38.488Z,17.30
2022-08-21T09:16:18.239Z,17.30
2022-08-21T09:18:55.665Z,17.20
2022-08-21T09:21:45.775Z,17.30
2022-08-21T09:24:32.973Z,17.30
2022-08-21T09:27:16.217Z,17.30
2022-08-21T09:29:49.580Z,17.20
2022-08-21T09:32:21.425Z,17.20
2022-08-21T09:35:15.130Z,17.10
2022-08-21T09:38:06.913Z,17.10
2022-08-21T09:40:40.029Z,17.10
2022-08-21T09:43:14.200Z,17.10
2022-08-21T09:45:44.552Z,17.10
2022-08-21T09:48:20.750Z,17.10
2022-08-21T09:50:50.175Z,17.10
2022-08-21T09:53:32.556Z,16.90
2022-08-21T09:56:36.451Z,17.00
2022-08-21T09:59:16.408Z,16.90
2022-08-21T10:01:48.488Z,16.90
2022-08-21T10:04:17.420Z,16.90
2022-08-21T10:06:45.794Z,16.90
2022-08-21T10:09:21.367Z,16.90
2022-08-21T10:12:18.327Z,16.80
2022-08-21T10:15:18.027Z,16.70
2022-08-21T10:18:12.289Z,16.80
2022-08-21T10:21:09.131Z,16.80
2022-08-21T10:24:04.384Z,16.70
2022-08-21T10:26:55.665Z,16.70
2022-08-21T10:30:02.187Z,16.70
2022-08-21T10:32:57.367Z,16.60
2022-08-21T10:35:36.244Z,16.60
2022-08-21T10:38:52.638Z,16.70
2022-08-21T10:41:29.310Z,16.70
2022-08-21T10:44:35.145Z,16.70
2022-08-21T10:47:18.991Z,16.60
2022-08-21T10:50:12.173Z,16.40
2022-08-21T10:53:02.652Z,16.40
2022-08-21T10:56:01.358Z,16.40
2022-08-21T10:58:39.132Z,16.40
2022-08-21T11:01:17.453Z,16.40
2022-08-21T11:03:56.506Z,16.30
2022-08-21T11:06:32.543Z,16.40
2022-08-21T11:09:15.591Z,16.30
2022-08-21T11:11:59.351Z,16.40
2022-08-21T11:14:40.016Z,16.30
2022-08-21T11:17:25.180Z,16.30
2022-08-21T11:20:17.443Z,16.20
2022-08-21T11:23:30.192Z,16.30
2022-08-21T11:26:09.864Z,16.40
2022-08-21T11:29:03.980Z,16.30
2022-08-21T11:32:13.866Z,16.30
2022-08-21T11:34:42.431Z,16.20
2022-08-21T11:37:24.493Z,16.30
2022-08-21T11:39:55.751Z,16.20
2022-08-21T11:42:30.490Z,16.10
2022-08-21T11:45:29.300Z,16.10
2022-08-21T11:48:32.179Z,16.10
2022-08-21T11:51:02.695Z,16.00
2022-08-21T11:53:59.104Z,15.90
2022-08-21T11:56:45.893Z,16.00
2022-08-21T11:59:25.557Z,15.90
2022-08-21T12:01:55.210Z,15.90
2022-08-21T12:04:36.539Z,15.90
2022-08-21T12:07:34.937Z,15.90
2022-08-21T12:10:06.586Z,16.00
2022-08-21T12:12:38.990Z,16.00
2022-08-21T12:15:22.494Z,16.10
2022-08-21T12:18:04.060Z,16.10
2022-08-21T12:20:37.876Z,16.10
2022-08-21T12:23:33.625Z,16.20
2022-08-21T12:26:31.602Z,16.10
2022-08-21T12:29:16.367Z,16.10
2022-08-21T12:32:04.135Z,16.00
2022-08-21T12:34:40.034Z,16.00
2022-08-21T12:37:22.491Z,16.00
2022-08-21T12:39:54.888Z,15.90
2022-08-21T12:42:31.755Z,15.80
2022-08-21T12:45:13.065Z,15.70
2022-08-21T12:47:58.187Z,15.70
2022-08-21T12:50:43.608Z,15.60
2022-08-21T12:53:37.763Z,15.50
2022-08-21T12:56:10.828Z,15.60
2022-08-21T12:58:43.596Z,15.60
2022-08-21T13:01:21.528Z,15.60
2022-08-21T13:03:58.131Z,15.60
2022-08-21T13:06:40.218Z,15.50
2022-08-21T13:09:12.936Z,15.40
2022-08-21T13:11:44.447Z,15.40
2022-08-21T13:14:45.820Z,15.40
2022-08-21T13:17:25.608Z,15.50
2022-08-21T13:20:03.086Z,15.40
2022-08-21T13:22:34.986Z,15.40
2022-08-21T13:25:07.119Z,15.50
2022-08-21T13:27:36.114Z,15.40
2022-08-21T13:30:15.608Z,15.50
2022-08-21T13:32:50.468Z,15.60
2022-08-21T13:35:27.390Z,15.70
2022-08-21T13:37:57.491Z,15.70
2022-08-21T13:40:40.770Z,15.80
2022-08-21T13:43:21.167Z,15.90
2022-08-21T13:45:55.507Z,15.90
2022-08-21T13:48:31.031Z,16.00
2022-08-21T13:51:00.986Z,16.20
2022-08-21T13:53:39.036Z,16.20
2022-08-21T13:56:07.967Z,16.10
2022-08-21T13:58:47.803Z,16.20
2022-08-21T14:01:35.579Z,16.40
2022-08-21T14:04:09.508Z,16.60
2022-08-21T14:06:40.208Z,16.70
2022-08-21T14:09:25.176Z,16.90
2022-08-21T14:11:55.128Z,17.00
2022-08-21T14:14:35.844Z,17.20
2022-08-21T14:17:24.245Z,17.40
2022-08-21T14:19:53.367Z,17.50
2022-08-21T14:22:45.157Z,17.70
2022-08-21T14:25:21.279Z,17.70
2022-08-21T14:27:56.037Z,17.80
2022-08-21T14:30:33.447Z,18.10
2022-08-21T14:33:02.836Z,18.30
2022-08-21T14:35:31.680Z,18.50
2022-08-21T14:38:00.613Z,18.60
2022-08-21T14:40:29.566Z,18.70
2022-08-21T14:42:59.834Z,18.80
2022-08-21T14:45:31.180Z,18.90
2022-08-21T14:48:01.023Z,18.80
2022-08-21T14:50:29.429Z,18.90
2022-08-21T14:52:58.231Z,18.70
2022-08-21T14:55:27.567Z,18.50
2022-08-21T14:57:58.511Z,18.40
2022-08-21T15:00:36.036Z,18.50
2022-08-21T15:03:05.956Z,18.60
2022-08-21T15:05:34.458Z,18.60
2022-08-21T15:08:03.417Z,18.50
2022-08-21T15:10:34.684Z,18.70
2022-08-21T15:13:04.210Z,18.80
2022-08-21T15:15:37.528Z,19.00
2022-08-21T15:18:06.018Z,19.20
2022-08-21T15:20:34.820Z,19.40
2022-08-21T15:23:03.274Z,19.20
2022-08-21T15:25:31.856Z,19.20
2022-08-21T15:28:01.991Z,19.40
2022-08-21T15:30:32.140Z,19.00
2022-08-21T15:33:00.631Z,19.20
2022-08-21T15:35:29.076Z,19.50
2022-08-21T15:37:58.059Z,19.50
2022-08-21T15:40:27.531Z,19.50
2022-08-21T15:43:02.507Z,19.70
2022-08-21T15:45:31.020Z,19.60
2022-08-21T15:48:00.968Z,19.90
2022-08-21T15:50:33.768Z,20.00
2022-08-21T15:53:02.155Z,20.00
2022-08-21T15:55:30.614Z,20.10
2022-08-21T15:58:01.757Z,20.30
2022-08-21T16:00:34.213Z,20.50
2022-08-21T16:03:08.247Z,20.90
2022-08-21T16:05:36.644Z,21.40
2022-08-21T16:08:05.636Z,22.60
2022-08-21T16:10:34.513Z,23.50
2022-08-21T16:13:13.026Z,24.70
2022-08-21T16:15:42.099Z,25.20
2022-08-21T16:18:10.925Z,25.90
2022-08-21T16:20:39.361Z,26.70
2022-08-21T16:23:07.871Z,27.60
2022-08-21T16:25:40.007Z,28.50
2022-08-21T16:28:13.685Z,29.50
2022-08-21T16:30:43.622Z,29.40
2022-08-21T16:33:22.631Z,29.10
2022-08-21T16:35:51.015Z,29.40
2022-08-21T16:38:19.416Z,28.80
2022-08-21T16:40:47.845Z,28.90
2022-08-21T16:43:16.708Z,29.10
2022-08-21T16:45:45.769Z,30.10
2022-08-21T16:48:14.260Z,30.80
2022-08-21T16:50:42.635Z,31.90
2022-08-21T16:53:11.031Z,31.80
2022-08-21T16:55:40.208Z,31.40
2022-08-21T16:58:17.745Z,29.90
2022-08-21T17:00:46.312Z,29.40
2022-08-21T17:03:17.973Z,28.30
2022-08-21T17:05:46.427Z,27.50
2022-08-21T17:08:15.076Z,27.30
2022-08-21T17:10:49.344Z,26.50
2022-08-21T17:13:18.061Z,27.70
2022-08-21T17:15:46.793Z,28.20
2022-08-21T17:18:19.399Z,27.90
2022-08-21T17:20:51.048Z,28.90
2022-08-21T17:23:20.610Z,28.70
2022-08-21T17:25:52.530Z,28.60
2022-08-21T17:28:31.486Z,28.80
2022-08-21T17:31:03.143Z,29.00
2022-08-21T17:33:45.066Z,28.10
2022-08-21T17:36:13.476Z,27.70
2022-08-21T17:38:41.819Z,27.20
2022-08-21T17:41:10.513Z,26.20
2022-08-21T17:43:40.339Z,24.70
2022-08-21T17:46:09.549Z,24.80
2022-08-21T17:48:38.279Z,25.00
2022-08-21T17:51:10.974Z,25.20
2022-08-21T17:53:42.903Z,25.00
2022-08-21T17:56:11.521Z,24.90
2022-08-21T17:58:40.030Z,24.70
2022-08-21T18:01:08.569Z,24.60
2022-08-21T18:03:38.481Z,24.70
2022-08-21T18:06:09.069Z,24.40
2022-08-21T18:08:37.423Z,24.10
2022-08-21T18:11:07.719Z,24.20
2022-08-21T18:13:41.452Z,24.30
2022-08-21T18:16:13.346Z,24.00
2022-08-21T18:18:44.628Z,24.00
2022-08-21T18:21:13.432Z,24.00
2022-08-21T18:23:44.038Z,24.10
2022-08-21T18:26:16.416Z,24.30
2022-08-21T18:28:45.269Z,24.50
2022-08-21T18:31:14.217Z,24.60
2022-08-21T18:33:43.805Z,24.30
2022-08-21T18:36:30.500Z,24.30
2022-08-21T18:39:19.269Z,24.60
2022-08-21T18:41:49.103Z,24.60
2022-08-21T18:44:19.513Z,24.70
2022-08-21T18:46:52.326Z,24.80
2022-08-21T18:49:21.528Z,24.40
2022-08-21T18:51:51.171Z,24.40
2022-08-21T18:54:19.888Z,24.30
2022-08-21T18:56:51.282Z,24.30
2022-08-21T18:59:24.743Z,24.40
2022-08-21T19:01:54.078Z,24.50
2022-08-21T19:04:43.148Z,24.70
2022-08-21T19:07:11.739Z,24.50
2022-08-21T19:09:40.543Z,24.70
2022-08-21T19:12:13.977Z,25.00
2022-08-21T19:14:43.104Z,25.30
2022-08-21T19:17:11.477Z,25.60
2022-08-21T19:19:39.853Z,25.50
2022-08-21T19:22:10.879Z,25.40
2022-08-21T19:24:41.085Z,25.50
2022-08-21T19:27:19.720Z,25.50
2022-08-21T19:29:51.432Z,25.70
2022-08-21T19:32:21.695Z,25.80
2022-08-21T19:34:51.136Z,26.00
2022-08-21T19:37:21.246Z,26.40
2022-08-21T19:39:51.229Z,27.20
2022-08-21T19:42:28.567Z,27.80
2022-08-21T19:44:57.645Z,27.60
2022-08-21T19:47:29.426Z,27.60
2022-08-21T19:50:03.256Z,27.70
2022-08-21T19:58:24.875Z,27.30
2022-08-21T20:00:53.542Z,27.10
2022-08-21T20:03:21.900Z,27.00
2022-08-21T20:05:50.320Z,27.00
2022-08-21T20:08:20.150Z,27.00
2022-08-21T20:10:50.195Z,27.10
2022-08-21T20:13:22.898Z,27.20
2022-08-21T20:15:52.687Z,26.90
2022-08-21T20:21:13.977Z,26.70
2022-08-21T20:23:49.094Z,27.10
2022-08-21T20:26:19.267Z,27.20
2022-08-21T20:31:36.689Z,27.30
2022-08-21T20:34:09.057Z,27.50
2022-08-21T20:36:37.487Z,27.10
2022-08-21T20:39:11.197Z,27.00
2022-08-21T20:41:39.799Z,26.80
2022-08-21T20:44:13.365Z,27.00
2022-08-21T20:46:41.832Z,27.00
2022-08-21T20:49:15.488Z,26.90
2022-08-21T20:51:51.562Z,27.00
2022-08-21T20:54:26.801Z,27.30
2022-08-21T20:57:15.889Z,27.30
2022-08-21T21:00:14.321Z,27.40
2022-08-21T21:03:30.408Z,27.60
2022-08-21T21:06:07.355Z,27.70
2022-08-21T21:08:48.909Z,27.70
2022-08-21T21:11:27.179Z,27.60
2022-08-21T21:14:05.220Z,27.70
2022-08-21T21:19:59.833Z,28.00
2022-08-21T21:22:37.782Z,28.20
2022-08-21T21:25:18.236Z,28.20
2022-08-21T21:27:54.453Z,28.30
2022-08-21T21:30:33.496Z,28.30
2022-08-21T21:33:02.039Z,28.40
2022-08-21T21:35:44.715Z,28.40
2022-08-21T21:38:26.782Z,28.50
2022-08-21T21:41:17.842Z,28.50
2022-08-21T21:44:22.108Z,28.70
2022-08-21T21:47:02.598Z,29.00
2022-08-21T21:49:35.550Z,29.00
2022-08-21T21:52:12.372Z,29.30
2022-08-21T21:54:51.916Z,29.00
2022-08-21T21:57:29.420Z,28.90
2022-08-21T22:00:30.835Z,29.00
2022-08-21T22:03:26.571Z,29.20
2022-08-21T22:06:10.601Z,29.30
2022-08-21T22:08:54.904Z,29.40
2022-08-21T22:11:34.453Z,29.40
2022-08-21T22:14:22.613Z,29.40
2022-08-21T22:16:54.617Z,29.60
2022-08-21T22:19:31.721Z,29.40
2022-08-21T22:22:18.805Z,29.10
2022-08-21T22:24:50.356Z,29.40
2022-08-21T22:30:37.452Z,29.60
2022-08-21T22:33:32.856Z,29.10
2022-08-21T22:36:01.340Z,29.00
2022-08-21T22:38:34.604Z,29.10
2022-08-21T22:44:27.353Z,29.20
2022-08-21T22:46:59.747Z,29.20
2022-08-21T22:49:34.103Z,29.20
2022-08-21T22:52:25.177Z,29.30
2022-08-21T22:55:02.381Z,29.40
2022-08-21T22:57:35.674Z,29.40
2022-08-21T23:00:14.861Z,29.50
2022-08-21T23:02:46.592Z,29.30
2022-08-21T23:05:25.913Z,29.40
2022-08-21T23:07:56.290Z,29.50
2022-08-21T23:10:43.023Z,29.60
2022-08-21T23:13:19.089Z,29.50
2022-08-21T23:16:07.252Z,29.50
2022-08-21T23:18:43.948Z,29.60
2022-08-21T23:21:17.633Z,29.50
2022-08-21T23:24:23.971Z,29.70
2022-08-21T23:27:21.569Z,29.60
2022-08-21T23:30:07.385Z,29.60
2022-08-21T23:32:47.114Z,29.60
2022-08-21T23:35:53.908Z,29.70
2022-08-21T23:38:53.256Z,29.60
2022-08-21T23:41:34.831Z,29.60
2022-08-21T23:47:32.641Z,29.80
2022-08-21T23:50:26.903Z,29.80
2022-08-21T23:53:22.909Z,29.80
2022-08-21T23:56:08.948Z,30.00
2022-08-21T23:59:04.012Z,29.70
